19 Feb 2019 08:22 UTC 2019050+08:22 UTC

Overview Datums Bench Marks Data Query Site Visit Daily QC Messages Attributes

042: Nueces Delta 2

27° 53' 19" N   97° 34' 10" W
NUDE2
The Coastal Bend Bays & Estuaries Program Coastal Bend Bays and Estuaries Program

Station Information

Nueces Delta 2
Nueces Delta 2
more pictures
 
Station Name:Nueces Delta 2
DNR ID:042
Location:27° 53' 19" N, 97° 34' 10" W

Water Level Forecasts

Latest Observations

Series Metric English Marine Observed at
Water Temperature 15.0 °C 59.0 °F 59.0 °F Feb 19 02:12 CST
00h07m ago
Salinity 15.500 psu 15.500 psu 15.500 psu Feb 19 02:12 CST
00h07m ago

Maps

Nueces Delta 2
All Stations in Area
Entire Network
 

Recent Observations

Date/Time Water
Temp (°F)
Sal (psu)
Feb 19 02:00 CST 59.0 15.500
Feb 19 01:00 CST 59.5 15.500
Feb 19 00:00 CST 59.7 15.400
Feb 18 23:00 CST 60.4 15.500
Feb 18 22:00 CST 60.4 15.300
Feb 18 21:00 CST 61.0 15.300
Feb 18 20:00 CST 61.7 15.400
Feb 18 19:00 CST 62.8 15.500
Feb 18 18:00 CST 63.9 15.000
Feb 18 17:00 CST 63.1 14.200
Feb 18 16:00 CST 61.5 10.800
Feb 18 15:00 CST 61.3 14.100
Feb 18 14:00 CST 58.6 11.700
Feb 18 13:00 CST 57.0 13.200
Feb 18 12:00 CST 55.6 13.500
Feb 18 11:00 CST 55.0 10.400
Feb 18 10:00 CST 54.3 11.200
Feb 18 09:00 CST 53.8 11.400
Feb 18 08:00 CST 54.1 7.100
Feb 18 07:00 CST 54.7 14.300
Feb 18 06:00 CST 55.8 14.200
Feb 18 05:00 CST 56.1 14.000
Feb 18 04:00 CST 56.7 13.900
Feb 18 03:00 CST 58.8 13.300
Feb 18 02:00 CST 59.7 12.800

Historical Data Availability